Time;durP1;ratioP1;P1;durP2;ratioP2;P2;SDS_P1;SDS_P2;PMS_P1;PMS_P2;Temp;Humidity;BMP_temperature;BMP_pressure;BME280_temperature;BME280_humidity;BME280_pressure;Samples;Min_cycle;Max_cycle;Signal;HPM_P1;HPM_P2
2022/08/26 00:00:37;;;;;;;6.88;4.50;;;25.70;78.00;;;;;;5057097;28;20124;-77
2022/08/26 00:03:03;;;;;;;11.40;6.32;;;25.90;77.60;;;;;;5056754;28;20024;-78
2022/08/26 00:05:29;;;;;;;11.82;5.47;;;25.70;78.90;;;;;;5056751;28;20082;-77
2022/08/26 00:07:56;;;;;;;11.07;6.22;;;25.60;78.80;;;;;;5056713;28;20024;-77
2022/08/26 00:10:22;;;;;;;9.05;4.63;;;25.50;79.60;;;;;;5056533;28;20487;-78
2022/08/26 00:12:48;;;;;;;9.80;3.83;;;25.40;79.70;;;;;;5056650;28;20029;-78
2022/08/26 00:15:16;;;;;;;5.55;3.78;;;25.50;78.90;;;;;;5056530;28;20405;-77
2022/08/26 00:17:42;;;;;;;8.30;4.10;;;25.60;78.20;;;;;;5056373;28;20078;-77
2022/08/26 00:20:09;;;;;;;10.60;4.35;;;25.80;78.40;;;;;;5056526;28;20025;-77
2022/08/26 00:22:35;;;;;;;9.88;4.50;;;25.80;78.40;;;;;;5056496;28;20025;-78
2022/08/26 00:25:02;;;;;;;10.57;4.22;;;25.70;78.60;;;;;;5056182;28;20107;-78
2022/08/26 00:27:28;;;;;;;10.20;3.90;;;25.60;78.70;;;;;;5056190;28;20017;-78
2022/08/26 00:29:53;;;;;;;6.80;4.13;;;25.70;78.40;;;;;;5056474;28;20025;-77
2022/08/26 00:32:19;;;;;;;6.07;2.80;;;25.70;78.90;;;;;;5055784;28;20108;-77
2022/08/26 00:34:44;;;;;;;5.65;2.63;;;25.60;78.50;;;;;;5056333;28;20029;-78
2022/08/26 00:37:10;;;;;;;5.28;2.80;;;25.80;77.80;;;;;;5056213;28;20055;-77
2022/08/26 00:39:36;;;;;;;8.55;3.08;;;25.90;77.20;;;;;;5056116;28;20071;-77
2022/08/26 00:42:02;;;;;;;6.15;3.15;;;26.10;77.30;;;;;;5056252;28;20099;-77
2022/08/26 00:44:27;;;;;;;5.97;2.97;;;25.90;77.80;;;;;;5056167;28;20033;-77
2022/08/26 00:46:58;;;;;;;9.38;3.05;;;25.80;78.00;;;;;;5055597;28;20419;-78
2022/08/26 00:49:37;;;;;;;5.07;3.03;;;25.70;78.60;;;;;;5055845;28;20033;-77
2022/08/26 00:52:05;;;;;;;3.25;1.92;;;25.60;78.80;;;;;;5055827;28;20100;-77
2022/08/26 00:54:36;;;;;;;4.10;2.10;;;25.60;78.80;;;;;;5055744;28;20052;-77
2022/08/26 00:57:10;;;;;;;8.18;2.30;;;25.80;77.40;;;;;;5055702;28;20155;-77
2022/08/26 00:59:36;;;;;;;4.35;2.03;;;25.90;77.00;;;;;;5055698;28;20025;-77
2022/08/26 01:02:02;;;;;;;5.60;2.00;;;25.90;77.10;;;;;;5055028;28;20029;-77
2022/08/26 01:04:30;;;;;;;6.38;2.15;;;25.90;77.00;;;;;;5055370;28;20060;-77
2022/08/26 01:06:56;;;;;;;6.00;2.22;;;26.00;76.50;;;;;;5055528;28;20461;-77
2022/08/26 01:09:23;;;;;;;7.00;2.70;;;26.10;76.30;;;;;;5055746;28;20036;-77
2022/08/26 01:11:52;;;;;;;4.15;1.70;;;26.20;76.20;;;;;;5055358;28;20033;-77
2022/08/26 01:14:19;;;;;;;3.72;1.95;;;26.20;75.90;;;;;;5055198;28;20032;-77
2022/08/26 01:16:45;;;;;;;4.65;2.08;;;26.20;75.60;;;;;;5055497;28;20067;-77
2022/08/26 01:19:35;;;;;;;4.45;2.13;;;26.20;75.80;;;;;;5055272;28;20025;-78
2022/08/26 01:22:49;;;;;;;7.53;2.15;;;26.20;75.70;;;;;;5055256;28;20021;-78
2022/08/26 01:25:15;;;;;;;3.85;1.83;;;26.20;75.80;;;;;;5053172;28;20055;-77
2022/08/26 01:27:42;;;;;;;5.60;2.00;;;26.20;75.70;;;;;;5055068;28;20469;-77
2022/08/26 01:30:10;;;;;;;7.03;1.80;;;26.20;76.30;;;;;;5055023;28;20056;-77
2022/08/26 01:32:37;;;;;;;6.75;2.13;;;26.20;76.60;;;;;;5054944;28;20025;-77
2022/08/26 01:35:04;;;;;;;4.28;1.70;;;26.00;76.50;;;;;;5055142;28;20021;-77
2022/08/26 01:37:35;;;;;;;4.97;2.08;;;26.10;76.20;;;;;;5054662;28;20033;-77
2022/08/26 01:40:01;;;;;;;4.38;1.95;;;26.10;77.00;;;;;;5055243;28;20028;-77
2022/08/26 01:42:27;;;;;;;3.78;1.65;;;26.00;76.60;;;;;;5055061;28;20380;-78
2022/08/26 01:44:58;;;;;;;7.43;2.28;;;26.00;76.50;;;;;;5054765;28;20033;-77
2022/08/26 01:47:26;;;;;;;3.28;1.30;;;25.90;77.20;;;;;;5054697;28;20086;-77
2022/08/26 01:49:54;;;;;;;4.38;1.50;;;25.90;77.30;;;;;;5054858;28;20051;-77
2022/08/26 01:52:23;;;;;;;3.40;1.38;;;25.80;77.40;;;;;;5054701;28;20027;-78
2022/08/26 01:54:51;;;;;;;6.15;2.13;;;25.80;77.40;;;;;;5054556;28;20482;-78
2022/08/26 01:57:19;;;;;;;4.35;1.52;;;25.80;77.60;;;;;;5054523;28;20033;-77
2022/08/26 01:59:45;;;;;;;3.25;1.85;;;25.70;77.50;;;;;;5054465;28;20108;-77
2022/08/26 02:02:12;;;;;;;3.95;1.58;;;25.80;77.50;;;;;;5054179;28;20545;-77
2022/08/26 02:04:47;;;;;;;3.85;1.30;;;25.80;77.00;;;;;;5054318;28;20128;-77
2022/08/26 02:07:14;;;;;;;2.90;1.25;;;25.90;76.80;;;;;;5054610;28;20100;-77
2022/08/26 02:09:41;;;;;;;3.88;1.02;;;25.90;76.50;;;;;;5054318;28;20380;-78
2022/08/26 02:12:09;;;;;;;6.00;1.48;;;25.90;76.50;;;;;;5053738;28;20104;-77
2022/08/26 02:14:40;;;;;;;4.03;1.20;;;25.90;76.80;;;;;;5053915;28;20029;-77
2022/08/26 02:17:07;;;;;;;3.30;1.35;;;25.90;76.80;;;;;;5054475;28;20021;-77
2022/08/26 02:19:38;;;;;;;2.78;1.08;;;25.90;76.70;;;;;;5054230;28;20028;-77
2022/08/26 02:22:10;;;;;;;3.83;1.92;;;25.90;77.30;;;;;;5053947;28;20155;-78
2022/08/26 02:24:46;;;;;;;4.25;1.10;;;25.90;76.80;;;;;;5053743;28;20048;-77
2022/08/26 02:27:16;;;;;;;2.47;1.00;;;25.80;76.80;;;;;;5054249;28;20033;-77
2022/08/26 02:29:45;;;;;;;2.55;1.05;;;25.90;76.50;;;;;;5054293;28;20028;-77
2022/08/26 02:32:11;;;;;;;2.38;0.80;;;25.80;76.80;;;;;;5053783;28;20107;-78
2022/08/26 02:34:37;;;;;;;4.45;1.10;;;25.90;76.70;;;;;;5054136;28;20104;-77
2022/08/26 02:37:07;;;;;;;4.05;1.23;;;25.70;77.10;;;;;;5053811;28;20032;-77
2022/08/26 02:39:35;;;;;;;5.40;1.40;;;25.60;77.40;;;;;;5053657;28;20499;-77
2022/08/26 02:42:01;;;;;;;3.88;1.00;;;25.60;77.30;;;;;;5053774;28;20033;-77
2022/08/26 02:44:27;;;;;;;3.80;1.05;;;25.60;77.10;;;;;;5053881;28;20036;-77
2022/08/26 02:46:53;;;;;;;5.00;1.42;;;25.70;77.00;;;;;;5053434;28;20025;-77
2022/08/26 02:49:19;;;;;;;2.45;0.70;;;25.70;77.20;;;;;;5053671;28;20037;-77
2022/08/26 02:51:45;;;;;;;2.90;1.02;;;25.70;77.00;;;;;;5053865;28;20021;-77
2022/08/26 02:54:12;;;;;;;2.85;0.90;;;25.80;77.00;;;;;;5053758;28;20025;-79
2022/08/26 02:56:37;;;;;;;4.03;0.82;;;25.80;76.60;;;;;;5053352;28;20108;-77
2022/08/26 02:59:03;;;;;;;3.13;1.00;;;25.90;76.60;;;;;;5053496;28;20041;-77
2022/08/26 03:01:32;;;;;;;1.92;0.75;;;25.80;76.80;;;;;;5053850;28;20509;-77
2022/08/26 03:03:59;;;;;;;3.88;1.10;;;25.70;76.80;;;;;;5053330;28;20092;-77
2022/08/26 03:06:25;;;;;;;3.80;0.77;;;25.80;76.80;;;;;;5053238;28;20017;-77
2022/08/26 03:08:51;;;;;;;4.75;0.65;;;25.70;77.10;;;;;;5053254;28;20033;-77
2022/08/26 03:11:17;;;;;;;2.22;0.70;;;25.60;77.80;;;;;;5053531;28;20017;-77
2022/08/26 03:13:44;;;;;;;5.95;1.27;;;25.40;78.10;;;;;;5053518;28;20431;-77
2022/08/26 03:16:09;;;;;;;4.00;0.88;;;25.40;78.50;;;;;;5053207;28;20491;-77
2022/08/26 03:18:35;;;;;;;5.65;1.05;;;25.30;78.60;;;;;;5052929;28;20025;-77
2022/08/26 03:21:09;;;;;;;4.38;1.00;;;25.20;79.00;;;;;;5053035;28;20024;-77
2022/08/26 03:23:36;;;;;;;3.72;0.75;;;25.10;79.40;;;;;;5052862;28;20531;-77
2022/08/26 03:26:03;;;;;;;2.42;0.70;;;25.20;79.20;;;;;;5052819;28;20044;-77
2022/08/26 03:28:28;;;;;;;2.03;0.50;;;25.30;78.60;;;;;;5053069;28;20503;-77
2022/08/26 03:30:54;;;;;;;3.40;0.77;;;25.40;78.10;;;;;;5052741;28;20033;-77
2022/08/26 03:33:21;;;;;;;3.55;0.90;;;25.50;78.30;;;;;;5053039;28;20032;-77
2022/08/26 03:35:47;;;;;;;4.22;1.25;;;25.50;77.90;;;;;;5053246;28;20033;-77
2022/08/26 03:38:13;;;;;;;1.63;0.55;;;25.60;77.90;;;;;;5053295;28;20124;-77
2022/08/26 03:40:41;;;;;;;3.75;0.70;;;25.60;77.70;;;;;;5053246;28;20028;-77
2022/08/26 03:43:08;;;;;;;3.47;0.80;;;25.70;77.60;;;;;;5052984;28;20035;-77
2022/08/26 03:45:35;;;;;;;4.82;0.70;;;25.60;77.60;;;;;;5053186;28;20060;-77
2022/08/26 03:48:01;;;;;;;3.25;0.60;;;25.60;77.90;;;;;;5052832;28;20491;-77
2022/08/26 03:50:27;;;;;;;3.63;0.98;;;25.50;78.20;;;;;;5053073;28;20036;-77
2022/08/26 03:52:54;;;;;;;3.13;0.98;;;25.40;78.70;;;;;;5053120;28;20051;-77
2022/08/26 03:55:23;;;;;;;3.50;0.70;;;25.40;78.90;;;;;;5053022;28;20025;-77
2022/08/26 03:57:49;;;;;;;3.88;0.63;;;25.50;78.10;;;;;;5052574;28;20473;-77
2022/08/26 04:00:15;;;;;;;2.13;0.60;;;25.50;77.90;;;;;;5053057;28;20032;-77
2022/08/26 04:02:45;;;;;;;2.85;0.57;;;25.50;77.90;;;;;;5052718;28;20029;-77
2022/08/26 04:05:16;;;;;;;2.75;0.73;;;25.50;77.90;;;;;;5052942;28;20048;-77
2022/08/26 04:07:42;;;;;;;3.27;0.50;;;25.50;77.70;;;;;;5052922;28;20388;-77
2022/08/26 04:10:12;;;;;;;2.83;0.45;;;25.60;77.90;;;;;;5052984;28;20033;-77
2022/08/26 04:12:38;;;;;;;4.35;0.60;;;25.50;77.50;;;;;;5052774;28;20075;-77
2022/08/26 04:15:06;;;;;;;2.85;0.50;;;25.60;77.80;;;;;;5052529;28;20051;-77
2022/08/26 04:17:32;;;;;;;3.13;0.60;;;25.50;77.60;;;;;;5052594;28;20100;-77
2022/08/26 04:19:57;;;;;;;3.78;0.80;;;25.60;77.60;;;;;;5052686;28;20048;-77
2022/08/26 04:22:23;;;;;;;2.28;0.50;;;25.50;77.60;;;;;;5052697;28;20472;-77
2022/08/26 04:24:48;;;;;;;2.00;0.50;;;25.50;77.60;;;;;;5052409;28;20049;-77
2022/08/26 04:27:14;;;;;;;3.70;0.80;;;25.50;77.70;;;;;;5052615;28;20417;-77
2022/08/26 04:29:40;;;;;;;2.05;0.50;;;25.50;77.80;;;;;;5052300;28;20091;-77
2022/08/26 04:32:07;;;;;;;4.03;0.60;;;25.50;77.60;;;;;;5052747;28;20017;-77
2022/08/26 04:34:33;;;;;;;5.53;0.52;;;25.50;77.50;;;;;;5052714;28;20032;-77
2022/08/26 04:36:59;;;;;;;3.30;0.70;;;25.60;77.70;;;;;;5054637;28;20025;-77
2022/08/26 04:39:26;;;;;;;3.15;0.50;;;25.50;77.60;;;;;;5056308;28;20028;-77
2022/08/26 04:41:53;;;;;;;4.45;0.75;;;25.40;77.80;;;;;;5056039;28;20032;-77
2022/08/26 04:44:19;;;;;;;1.33;0.40;;;25.40;77.40;;;;;;5055810;28;20040;-77
2022/08/26 04:46:45;;;;;;;1.80;0.50;;;25.60;77.10;;;;;;5055836;28;20025;-77
2022/08/26 04:49:12;;;;;;;2.85;0.70;;;25.70;76.70;;;;;;5056079;28;20025;-77
2022/08/26 04:51:38;;;;;;;1.73;0.30;;;25.70;76.80;;;;;;5055810;28;20468;-77
2022/08/26 04:54:05;;;;;;;2.33;0.30;;;25.50;77.10;;;;;;5055841;28;20029;-77
2022/08/26 04:56:37;;;;;;;2.00;0.45;;;25.50;77.20;;;;;;5055898;28;20380;-77
2022/08/26 04:59:05;;;;;;;2.55;0.57;;;25.60;77.10;;;;;;5055762;28;20500;-77
2022/08/26 05:01:30;;;;;;;1.77;0.57;;;25.60;76.90;;;;;;5055907;28;20033;-77
2022/08/26 05:03:57;;;;;;;2.50;0.50;;;25.60;76.80;;;;;;5055166;28;20029;-77
2022/08/26 05:06:23;;;;;;;3.15;0.55;;;25.50;77.10;;;;;;5055790;28;20028;-77
2022/08/26 05:08:49;;;;;;;1.85;0.30;;;25.40;77.10;;;;;;5055749;28;20028;-77
2022/08/26 05:11:15;;;;;;;2.00;0.40;;;25.60;76.90;;;;;;5055345;28;20033;-77
2022/08/26 05:13:41;;;;;;;4.03;0.68;;;25.60;76.70;;;;;;5055566;28;20033;-77
2022/08/26 05:16:11;;;;;;;1.48;0.40;;;25.70;76.70;;;;;;5055316;28;20442;-76
2022/08/26 05:18:39;;;;;;;1.20;0.38;;;25.60;76.60;;;;;;5055402;28;20434;-77
2022/08/26 05:21:05;;;;;;;2.30;0.40;;;25.70;76.40;;;;;;5055267;28;20051;-77
2022/08/26 05:23:33;;;;;;;1.58;0.38;;;25.70;76.30;;;;;;5055053;28;20536;-77
2022/08/26 05:25:59;;;;;;;2.83;0.50;;;25.70;76.20;;;;;;5054869;28;20053;-77
2022/08/26 05:28:28;;;;;;;4.63;0.50;;;25.80;76.20;;;;;;5055043;28;20056;-76
2022/08/26 05:30:54;;;;;;;1.35;0.30;;;25.80;76.40;;;;;;5055166;28;20025;-77
2022/08/26 05:33:21;;;;;;;2.55;0.50;;;25.80;76.20;;;;;;5055326;28;20025;-77
2022/08/26 05:35:47;;;;;;;1.75;0.30;;;25.80;76.20;;;;;;5055019;28;20428;-77
2022/08/26 05:38:15;;;;;;;3.22;0.52;;;25.80;76.10;;;;;;5054844;28;20060;-77
2022/08/26 05:40:49;;;;;;;4.63;0.50;;;25.80;76.20;;;;;;5054712;28;20025;-77
2022/08/26 05:43:15;;;;;;;1.65;0.30;;;25.80;76.30;;;;;;5054993;28;20025;-77
2022/08/26 05:45:47;;;;;;;5.05;0.52;;;25.80;76.20;;;;;;5054801;28;20033;-77
2022/08/26 05:48:14;;;;;;;3.03;0.93;;;25.80;76.60;;;;;;5054885;28;20029;-77
2022/08/26 05:50:43;;;;;;;4.28;0.40;;;25.60;77.20;;;;;;5054893;28;20759;-76
2022/08/26 05:53:10;;;;;;;2.58;0.32;;;25.40;77.70;;;;;;5054536;28;20129;-76
2022/08/26 05:55:44;;;;;;;2.72;0.40;;;25.30;77.60;;;;;;5054548;28;20029;-76
2022/08/26 05:58:11;;;;;;;1.77;0.45;;;25.40;77.70;;;;;;5054779;28;20024;-77
2022/08/26 06:00:37;;;;;;;3.05;0.65;;;25.40;77.60;;;;;;5054485;28;20033;-76
2022/08/26 06:03:07;;;;;;;2.67;0.50;;;25.40;77.70;;;;;;5054594;28;20017;-77
2022/08/26 06:05:37;;;;;;;3.92;0.50;;;25.40;78.00;;;;;;5054284;28;20033;-77
2022/08/26 06:08:14;;;;;;;4.03;0.40;;;25.30;77.90;;;;;;5054474;28;20388;-77
2022/08/26 06:11:06;;;;;;;2.35;0.43;;;25.40;78.10;;;;;;5054618;28;20021;-77
2022/08/26 06:13:33;;;;;;;2.47;0.55;;;25.40;77.50;;;;;;5051427;28;20101;-77
2022/08/26 06:16:01;;;;;;;4.13;0.40;;;25.40;77.40;;;;;;5053950;28;20025;-77
2022/08/26 06:18:31;;;;;;;3.53;0.38;;;25.50;77.20;;;;;;5053957;28;20040;-77
2022/08/26 06:20:58;;;;;;;3.38;0.50;;;25.60;77.10;;;;;;5054185;28;20029;-77
2022/08/26 06:26:11;;;;;;;2.35;0.30;;;25.60;76.90;;;;;;5054289;28;20086;-77
2022/08/26 06:28:37;;;;;;;3.25;0.68;;;25.70;76.80;;;;;;5053869;28;20334;-77
2022/08/26 06:31:03;;;;;;;4.80;0.50;;;25.70;76.80;;;;;;5053891;28;20032;-77
2022/08/26 06:33:31;;;;;;;4.15;0.57;;;25.70;76.80;;;;;;5053821;28;20484;-77
2022/08/26 06:35:57;;;;;;;3.38;0.43;;;25.60;77.60;;;;;;5053422;28;20499;-77
2022/08/26 06:38:23;;;;;;;3.17;0.60;;;25.50;77.10;;;;;;5054109;28;20035;-77
2022/08/26 06:40:51;;;;;;;4.18;0.60;;;25.50;77.10;;;;;;5053684;28;20017;-77
2022/08/26 06:43:19;;;;;;;6.30;0.52;;;25.50;77.00;;;;;;5053921;28;20107;-77
2022/08/26 06:45:46;;;;;;;5.03;0.80;;;25.60;77.00;;;;;;5053656;28;20033;-77
2022/08/26 06:48:17;;;;;;;2.50;0.50;;;25.60;77.00;;;;;;5053782;28;20059;-77
2022/08/26 06:50:43;;;;;;;6.97;1.00;;;25.60;76.90;;;;;;5053497;28;20074;-78
2022/08/26 06:53:11;;;;;;;4.40;0.35;;;25.60;76.80;;;;;;5053840;28;20025;-78
2022/08/26 06:55:44;;;;;;;3.47;0.50;;;25.50;76.60;;;;;;5053187;28;20427;-78
2022/08/26 06:58:11;;;;;;;5.55;0.40;;;25.50;76.70;;;;;;5053449;28;20045;-78
2022/08/26 07:00:37;;;;;;;2.58;0.73;;;25.30;77.30;;;;;;5053147;28;20493;-78
2022/08/26 07:03:04;;;;;;;3.88;0.68;;;25.30;77.40;;;;;;5053196;28;20530;-75
2022/08/26 07:05:30;;;;;;;3.30;0.40;;;25.30;77.40;;;;;;5053559;28;20029;-78
2022/08/26 07:07:56;;;;;;;5.95;0.75;;;25.30;77.30;;;;;;5053296;28;20377;-78
2022/08/26 07:10:23;;;;;;;6.13;0.57;;;25.20;77.40;;;;;;5053426;28;20028;-78
2022/08/26 07:12:50;;;;;;;4.47;0.50;;;25.20;77.50;;;;;;5053173;28;20024;-78
2022/08/26 07:15:16;;;;;;;3.25;0.38;;;25.20;77.60;;;;;;5053423;28;20027;-78
2022/08/26 07:17:41;;;;;;;1.73;0.40;;;25.20;77.40;;;;;;5053327;28;20536;-78
2022/08/26 07:20:08;;;;;;;4.22;0.65;;;25.30;77.30;;;;;;5053150;28;20048;-78
2022/08/26 07:22:35;;;;;;;4.25;0.52;;;25.40;77.10;;;;;;5053049;28;20028;-78
2022/08/26 07:25:02;;;;;;;5.60;0.60;;;25.40;77.10;;;;;;5052687;28;20053;-78
2022/08/26 07:27:27;;;;;;;3.35;0.55;;;25.40;77.00;;;;;;5053267;28;20052;-78
2022/08/26 07:29:55;;;;;;;6.32;0.60;;;25.40;77.10;;;;;;5053093;28;20057;-78
2022/08/26 07:32:21;;;;;;;4.45;0.55;;;25.30;77.30;;;;;;5053500;28;20104;-78
2022/08/26 07:34:47;;;;;;;3.50;0.50;;;25.20;77.50;;;;;;5053250;28;20075;-78
2022/08/26 07:37:13;;;;;;;3.38;0.40;;;25.10;77.50;;;;;;5052756;28;20021;-78
2022/08/26 07:39:40;;;;;;;2.17;0.50;;;25.20;77.30;;;;;;5053090;28;20017;-78
2022/08/26 07:42:07;;;;;;;5.90;0.70;;;25.20;77.10;;;;;;5053202;28;20116;-78
2022/08/26 07:44:33;;;;;;;4.82;0.60;;;25.20;77.00;;;;;;5052989;28;20400;-78
2022/08/26 07:46:59;;;;;;;2.97;0.52;;;25.20;77.20;;;;;;5053145;28;20086;-78
2022/08/26 07:49:25;;;;;;;3.10;0.40;;;25.30;77.10;;;;;;5052406;28;20486;-77
2022/08/26 07:51:52;;;;;;;5.07;0.60;;;25.30;76.70;;;;;;5052983;28;20025;-77
2022/08/26 07:54:18;;;;;;;4.80;0.32;;;25.40;76.60;;;;;;5052992;28;20033;-77
2022/08/26 07:56:43;;;;;;;4.75;0.52;;;25.40;76.40;;;;;;5053076;28;20032;-77
2022/08/26 07:59:10;;;;;;;3.22;0.68;;;25.50;76.20;;;;;;5053099;28;20025;-77
2022/08/26 08:01:37;;;;;;;3.42;0.40;;;25.50;76.00;;;;;;5052912;28;20354;-77
2022/08/26 08:04:04;;;;;;;4.40;0.52;;;25.50;75.90;;;;;;5052419;28;20072;-77
2022/08/26 08:06:29;;;;;;;5.18;0.40;;;25.50;76.10;;;;;;5052984;28;20100;-77
2022/08/26 08:08:56;;;;;;;3.60;0.50;;;25.30;76.30;;;;;;5052893;28;20063;-77
2022/08/26 08:11:22;;;;;;;2.83;0.70;;;25.30;76.40;;;;;;5054057;28;20021;-77
2022/08/26 08:13:50;;;;;;;6.47;0.80;;;25.40;76.40;;;;;;5056659;28;20105;-77
2022/08/26 08:16:15;;;;;;;1.55;0.40;;;25.40;76.10;;;;;;5056563;28;20055;-77
2022/08/26 08:18:41;;;;;;;3.17;0.43;;;25.30;76.50;;;;;;5056450;28;20027;-77
2022/08/26 08:21:07;;;;;;;3.53;0.40;;;25.40;76.60;;;;;;5056173;28;20017;-77
2022/08/26 08:23:32;;;;;;;3.45;0.52;;;25.40;76.30;;;;;;5056342;28;20064;-77
2022/08/26 08:26:06;;;;;;;4.07;1.08;;;25.40;76.40;;;;;;5056094;28;20118;-77
2022/08/26 08:28:32;;;;;;;7.28;0.90;;;25.30;76.40;;;;;;5056509;28;20028;-77
2022/08/26 08:30:58;;;;;;;4.75;0.52;;;25.30;76.50;;;;;;5056224;28;20024;-77
2022/08/26 08:33:25;;;;;;;3.45;0.50;;;25.30;76.60;;;;;;5055743;28;20049;-77
2022/08/26 08:35:51;;;;;;;5.55;0.40;;;25.30;76.90;;;;;;5056206;28;20112;-77
2022/08/26 08:38:17;;;;;;;7.13;0.73;;;25.30;77.50;;;;;;5055822;28;20557;-77
2022/08/26 08:40:44;;;;;;;6.65;0.50;;;25.20;77.90;;;;;;5056262;28;20076;-77
2022/08/26 08:43:25;;;;;;;4.72;0.32;;;25.20;78.30;;;;;;5055885;28;20074;-77
2022/08/26 08:45:56;;;;;;;6.40;0.43;;;25.10;78.90;;;;;;5055998;28;20099;-77
2022/08/26 08:48:26;;;;;;;4.85;0.73;;;25.00;79.20;;;;;;5055713;28;20082;-77
2022/08/26 08:50:55;;;;;;;5.85;0.63;;;24.80;79.70;;;;;;5055527;28;20017;-77
2022/08/26 08:53:35;;;;;;;5.20;0.68;;;24.70;80.20;;;;;;5055740;28;20029;-77
2022/08/26 08:56:25;;;;;;;2.55;0.28;;;24.60;80.40;;;;;;5056018;28;20116;-77
2022/08/26 08:59:04;;;;;;;3.47;0.40;;;24.60;80.50;;;;;;5055455;28;20028;-77
2022/08/26 09:01:50;;;;;;;7.25;0.50;;;24.70;80.20;;;;;;5055839;28;20017;-77
2022/08/26 09:04:44;;;;;;;4.90;0.50;;;24.70;80.50;;;;;;5055736;28;20032;-77
2022/08/26 09:07:32;;;;;;;5.53;0.68;;;24.60;80.80;;;;;;5055585;28;20021;-77
2022/08/26 09:10:15;;;;;;;9.20;0.57;;;24.50;81.20;;;;;;5055603;28;20049;-77
2022/08/26 09:12:42;;;;;;;4.82;0.70;;;24.50;81.40;;;;;;5055698;28;20024;-77
2022/08/26 09:15:17;;;;;;;9.85;1.30;;;24.60;81.40;;;;;;5055693;28;20452;-77
2022/08/26 09:17:58;;;;;;;4.55;0.82;;;24.50;81.30;;;;;;5055054;28;20028;-77
2022/08/26 09:21:10;;;;;;;6.20;0.50;;;24.60;81.50;;;;;;5055322;28;20021;-77
2022/08/26 09:23:40;;;;;;;2.73;0.40;;;24.60;81.50;;;;;;5054908;28;20025;-77
2022/08/26 09:26:19;;;;;;;1.50;0.40;;;24.60;81.30;;;;;;5055061;28;20641;-77
2022/08/26 09:28:53;;;;;;;5.88;0.68;;;24.70;80.80;;;;;;5055299;28;20033;-77
2022/08/26 09:31:29;;;;;;;7.38;1.02;;;24.80;80.70;;;;;;5054986;28;20340;-77
2022/08/26 09:34:21;;;;;;;6.32;0.60;;;24.80;80.70;;;;;;5054993;28;20116;-77
2022/08/26 09:36:48;;;;;;;3.25;0.40;;;24.90;80.50;;;;;;5055230;28;20043;-77
2022/08/26 09:39:23;;;;;;;5.47;0.47;;;24.80;80.60;;;;;;5055101;28;20029;-77
2022/08/26 09:42:09;;;;;;;5.63;0.57;;;24.80;80.60;;;;;;5054909;28;20408;-77
2022/08/26 09:44:54;;;;;;;5.15;0.80;;;24.80;80.70;;;;;;5055084;28;20037;-77
2022/08/26 09:47:30;;;;;;;2.17;0.35;;;24.70;80.90;;;;;;5055057;28;20047;-77
2022/08/26 09:50:13;;;;;;;2.25;0.40;;;24.70;80.80;;;;;;5054705;28;20384;-76
2022/08/26 09:52:38;;;;;;;4.40;0.47;;;24.80;80.90;;;;;;5054780;28;20031;-77
2022/08/26 09:55:11;;;;;;;2.85;0.25;;;25.00;79.90;;;;;;5054840;28;20097;-77
2022/08/26 09:57:52;;;;;;;4.72;0.40;;;25.10;79.50;;;;;;5054742;28;20390;-77
2022/08/26 10:00:26;;;;;;;3.25;0.38;;;25.10;79.00;;;;;;5054312;28;20104;-77
2022/08/26 10:02:52;;;;;;;4.88;0.70;;;25.10;78.80;;;;;;5054406;28;20029;-77
2022/08/26 10:05:53;;;;;;;3.55;0.40;;;25.10;78.60;;;;;;5054191;28;20506;-77
2022/08/26 10:08:32;;;;;;;2.95;0.40;;;25.20;78.40;;;;;;5053215;28;20115;-77
2022/08/26 10:11:01;;;;;;;3.65;0.40;;;25.20;78.00;;;;;;5054064;28;20490;-77
2022/08/26 10:13:38;;;;;;;3.45;0.40;;;25.30;77.70;;;;;;5054340;28;20025;-77
2022/08/26 10:16:26;;;;;;;4.13;0.30;;;25.30;77.50;;;;;;5054227;28;20391;-77
2022/08/26 10:19:04;;;;;;;5.05;0.70;;;25.30;77.50;;;;;;5054288;28;20435;-77
2022/08/26 10:22:09;;;;;;;3.05;0.55;;;25.30;77.50;;;;;;5053875;28;20101;-77
2022/08/26 10:24:41;;;;;;;5.53;0.43;;;25.20;77.50;;;;;;5053329;28;20055;-77
2022/08/26 10:27:25;;;;;;;4.70;0.65;;;25.20;77.30;;;;;;5053984;28;20480;-77
2022/08/26 10:29:55;;;;;;;6.97;0.77;;;24.90;77.60;;;;;;5053682;28;20036;-77
2022/08/26 10:32:29;;;;;;;3.28;0.43;;;24.90;78.00;;;;;;5054108;28;20100;-77
2022/08/26 10:34:55;;;;;;;2.58;0.30;;;24.80;78.00;;;;;;5053407;28;20028;-77
2022/08/26 10:37:25;;;;;;;3.33;0.40;;;24.70;78.40;;;;;;5054020;28;20029;-77
2022/08/26 10:39:59;;;;;;;5.10;0.50;;;24.70;77.80;;;;;;5053894;28;20017;-77
2022/08/26 10:42:34;;;;;;;2.40;0.30;;;24.70;77.80;;;;;;5053987;28;20029;-77
2022/08/26 10:45:07;;;;;;;3.80;0.40;;;24.70;78.00;;;;;;5053426;28;20090;-77
2022/08/26 10:48:09;;;;;;;5.60;0.57;;;24.80;77.80;;;;;;5053588;28;20461;-77
2022/08/26 10:50:38;;;;;;;5.70;0.60;;;25.00;76.80;;;;;;5053576;28;20040;-77
2022/08/26 10:53:35;;;;;;;2.38;0.30;;;25.10;76.20;;;;;;5053639;28;20029;-77
2022/08/26 10:56:30;;;;;;;2.22;0.40;;;25.20;76.10;;;;;;5053596;28;20074;-77
2022/08/26 10:59:06;;;;;;;2.40;0.35;;;25.20;75.90;;;;;;5049991;28;20043;-77
2022/08/26 11:01:51;;;;;;;2.72;0.22;;;25.20;76.20;;;;;;5053433;28;20021;-77
2022/08/26 11:04:52;;;;;;;2.80;0.40;;;25.30;76.00;;;;;;5053565;28;20102;-77
2022/08/26 11:07:34;;;;;;;3.75;0.40;;;25.30;75.90;;;;;;5053633;28;20059;-77
2022/08/26 11:10:07;;;;;;;2.38;0.30;;;25.30;75.50;;;;;;5053212;28;20503;-77
2022/08/26 11:12:35;;;;;;;3.38;0.22;;;25.20;75.50;;;;;;5052989;28;20499;-77
2022/08/26 11:15:28;;;;;;;2.28;0.30;;;25.20;75.90;;;;;;5052903;28;20025;-77
2022/08/26 11:18:01;;;;;;;2.70;0.30;;;25.10;76.10;;;;;;5042912;28;20040;-77
2022/08/26 11:20:26;;;;;;;;;;;25.10;76.30;;;;;;5053106;28;20025;-77
2022/08/26 11:22:54;;;;;;;2.03;0.38;;;25.20;77.00;;;;;;5053477;28;19905;-77
2022/08/26 11:25:22;;;;;;;3.47;0.73;;;25.20;77.70;;;;;;5052676;28;20052;-77
2022/08/26 11:27:49;;;;;;;1.60;0.25;;;25.10;78.30;;;;;;5052931;28;20496;-77
2022/08/26 11:30:15;;;;;;;1.40;0.28;;;25.10;78.30;;;;;;5053124;28;20365;-77
2022/08/26 11:32:40;;;;;;;1.05;0.30;;;25.10;78.30;;;;;;5052661;28;20104;-77
2022/08/26 11:35:06;;;;;;;1.45;0.30;;;25.00;78.70;;;;;;5052973;28;20067;-77
2022/08/26 11:37:39;;;;;;;2.60;0.30;;;25.00;78.50;;;;;;5053129;28;20021;-77
2022/08/26 11:40:23;;;;;;;2.20;0.13;;;25.10;78.10;;;;;;5052889;28;20036;-77
2022/08/26 11:42:59;;;;;;;1.73;0.20;;;25.20;77.80;;;;;;5052881;28;20032;-77
2022/08/26 11:45:36;;;;;;;3.17;0.30;;;25.30;77.60;;;;;;5054430;28;20044;-76
2022/08/26 11:48:18;;;;;;;1.92;0.30;;;25.40;77.40;;;;;;5057213;28;20074;-76
2022/08/26 11:50:58;;;;;;;2.58;0.20;;;25.40;77.10;;;;;;5057286;28;20439;-76
2022/08/26 11:53:24;;;;;;;1.73;0.20;;;25.40;76.80;;;;;;5056939;28;20032;-76
2022/08/26 11:55:52;;;;;;;1.13;0.30;;;25.40;76.60;;;;;;5056965;28;20033;-76
2022/08/26 11:58:23;;;;;;;3.05;0.30;;;25.40;76.50;;;;;;5056648;28;20468;-78
2022/08/26 12:00:50;;;;;;;3.38;0.30;;;25.40;76.20;;;;;;5056934;28;20036;-77
2022/08/26 12:03:38;;;;;;;1.67;0.28;;;25.30;75.70;;;;;;5056478;28;20057;-77
2022/08/26 12:06:16;;;;;;;1.85;0.20;;;25.30;75.90;;;;;;5056857;28;20049;-77
2022/08/26 12:08:43;;;;;;;2.45;0.57;;;25.30;75.90;;;;;;5056515;28;20029;-77
2022/08/26 12:11:27;;;;;;;3.50;0.57;;;25.30;76.00;;;;;;5056846;28;20108;-77
2022/08/26 12:14:02;;;;;;;3.08;0.43;;;25.30;75.50;;;;;;5056747;28;20438;-78
2022/08/26 12:16:35;;;;;;;1.40;0.20;;;25.20;76.00;;;;;;5056443;28;20021;-77
2022/08/26 12:19:20;;;;;;;1.10;0.13;;;25.20;76.70;;;;;;5056711;28;20033;-77
2022/08/26 12:21:47;;;;;;;2.58;0.38;;;25.20;76.40;;;;;;5056595;28;20143;-77
2022/08/26 12:24:17;;;;;;;3.58;0.10;;;25.30;76.20;;;;;;5056167;28;20057;-77
2022/08/26 12:26:43;;;;;;;2.13;0.25;;;25.20;75.90;;;;;;5056282;28;20022;-77
2022/08/26 12:29:24;;;;;;;1.90;0.30;;;25.10;75.80;;;;;;5056269;28;20047;-78
2022/08/26 12:31:50;;;;;;;3.63;0.30;;;25.10;75.80;;;;;;5056628;28;20112;-77
2022/08/26 12:34:16;;;;;;;1.77;0.30;;;25.20;75.60;;;;;;5055919;28;20028;-77
2022/08/26 12:36:55;;;;;;;2.05;0.20;;;25.20;75.30;;;;;;5056394;28;20025;-79
2022/08/26 12:39:35;;;;;;;2.17;0.30;;;25.20;75.40;;;;;;5055868;28;20139;-80
2022/08/26 12:42:15;;;;;;;2.58;0.20;;;25.20;75.40;;;;;;5056034;28;20384;-79
2022/08/26 12:44:57;;;;;;;1.98;0.20;;;25.20;75.50;;;;;;5055891;28;20121;-79
2022/08/26 12:47:41;;;;;;;1.98;0.25;;;25.20;75.30;;;;;;5055977;28;20025;-79
2022/08/26 12:50:17;;;;;;;1.77;0.38;;;25.20;75.20;;;;;;5056134;28;20086;-79
2022/08/26 12:53:08;;;;;;;3.78;0.40;;;25.20;75.40;;;;;;5055646;28;20478;-79
2022/08/26 12:55:41;;;;;;;4.05;0.30;;;25.20;75.50;;;;;;5055594;28;20170;-79
2022/08/26 12:58:13;;;;;;;1.48;0.20;;;25.00;75.80;;;;;;5054941;28;20032;-79
2022/08/26 13:00:41;;;;;;;2.53;0.20;;;25.10;75.70;;;;;;5055775;28;20392;-79
2022/08/26 13:03:45;;;;;;;1.05;0.10;;;25.10;75.40;;;;;;5055833;28;20155;-79
2022/08/26 13:06:20;;;;;;;2.45;0.20;;;25.20;75.50;;;;;;5055866;28;20033;-78
2022/08/26 13:08:51;;;;;;;1.80;0.20;;;25.30;75.00;;;;;;5055369;28;20477;-79